createdAt,value
2023-05-16T00:02:42.539Z,100.00
2023-05-16T00:05:46.697Z,100.00
2023-05-16T00:08:51.656Z,100.00
2023-05-16T00:11:55.300Z,100.00
2023-05-16T00:14:59.410Z,100.00
2023-05-16T00:18:03.083Z,100.00
2023-05-16T00:21:07.432Z,100.00
2023-05-16T00:24:12.347Z,100.00
2023-05-16T00:27:15.819Z,100.00
2023-05-16T00:30:19.530Z,100.00
2023-05-16T00:33:23.104Z,100.00
2023-05-16T00:36:26.612Z,100.00
2023-05-16T00:39:32.289Z,100.00
2023-05-16T00:42:35.815Z,100.00
2023-05-16T00:45:39.505Z,100.00
2023-05-16T00:48:42.982Z,100.00
2023-05-16T00:51:46.809Z,100.00
2023-05-16T00:54:52.667Z,100.00
2023-05-16T00:57:56.929Z,100.00
2023-05-16T01:01:02.072Z,100.00
2023-05-16T01:04:07.067Z,100.00
2023-05-16T01:07:10.759Z,100.00
2023-05-16T01:10:16.781Z,100.00
2023-05-16T01:13:31.680Z,100.00
2023-05-16T01:16:47.714Z,100.00
2023-05-16T01:20:08.280Z,100.00
2023-05-16T01:23:35.086Z,100.00
2023-05-16T01:26:41.200Z,100.00
2023-05-16T01:29:44.702Z,100.00
2023-05-16T01:32:48.362Z,100.00
2023-05-16T01:36:04.315Z,100.00
2023-05-16T01:39:28.995Z,100.00
2023-05-16T01:42:38.194Z,100.00
2023-05-16T01:45:52.263Z,100.00
2023-05-16T01:49:17.841Z,100.00
2023-05-16T01:52:32.812Z,100.00
2023-05-16T01:55:46.714Z,100.00
2023-05-16T01:58:54.453Z,100.00
2023-05-16T02:01:59.480Z,100.00
2023-05-16T02:05:03.012Z,100.00
2023-05-16T02:08:07.141Z,100.00
2023-05-16T02:11:10.755Z,100.00
2023-05-16T02:14:15.710Z,100.00
2023-05-16T02:17:19.506Z,100.00
2023-05-16T02:20:23.291Z,100.00
2023-05-16T02:23:26.787Z,100.00
2023-05-16T02:26:30.249Z,100.00
2023-05-16T02:29:35.166Z,100.00
2023-05-16T02:32:39.070Z,100.00
2023-05-16T02:35:43.750Z,100.00
2023-05-16T02:38:47.397Z,100.00
2023-05-16T02:41:50.901Z,100.00
2023-05-16T02:44:55.790Z,100.00
2023-05-16T02:47:59.321Z,100.00
2023-05-16T02:51:02.817Z,100.00
2023-05-16T02:54:09.350Z,100.00
2023-05-16T02:57:12.892Z,100.00
2023-05-16T03:00:18.971Z,100.00
2023-05-16T03:03:22.600Z,100.00
2023-05-16T03:06:26.229Z,100.00
2023-05-16T03:09:29.794Z,100.00
2023-05-16T03:12:33.890Z,100.00
2023-05-16T03:15:38.947Z,100.00
2023-05-16T03:18:42.656Z,100.00
2023-05-16T03:21:46.256Z,100.00
2023-05-16T03:24:49.950Z,100.00
2023-05-16T03:27:53.611Z,100.00
2023-05-16T03:30:59.111Z,100.00
2023-05-16T03:34:02.611Z,100.00
2023-05-16T03:37:06.953Z,100.00
2023-05-16T03:40:11.658Z,100.00
2023-05-16T03:43:15.358Z,100.00
2023-05-16T03:46:20.342Z,100.00
2023-05-16T03:49:28.588Z,100.00
2023-05-16T03:52:32.153Z,100.00
2023-05-16T03:55:35.781Z,100.00
2023-05-16T03:58:39.400Z,100.00
2023-05-16T04:01:44.569Z,100.00
2023-05-16T04:04:48.214Z,100.00
2023-05-16T04:07:51.765Z,100.00
2023-05-16T04:10:55.915Z,100.00
2023-05-16T04:14:02.028Z,100.00
2023-05-16T04:17:07.333Z,100.00
2023-05-16T04:20:12.258Z,100.00
2023-05-16T04:23:16.146Z,100.00
2023-05-16T04:26:22.623Z,100.00
2023-05-16T04:29:26.627Z,100.00
2023-05-16T04:32:34.610Z,100.00
2023-05-16T04:35:38.363Z,100.00
2023-05-16T04:38:41.891Z,100.00
2023-05-16T04:41:45.454Z,100.00
2023-05-16T04:44:49.013Z,100.00
2023-05-16T04:47:54.041Z,100.00
2023-05-16T04:50:57.767Z,100.00
2023-05-16T04:54:01.379Z,100.00
2023-05-16T04:57:05.493Z,100.00
2023-05-16T05:00:12.401Z,100.00
2023-05-16T05:03:18.251Z,100.00
2023-05-16T05:06:21.871Z,100.00
2023-05-16T05:09:26.107Z,100.00
2023-05-16T05:12:29.629Z,100.00
2023-05-16T05:15:33.348Z,100.00
2023-05-16T05:18:38.423Z,100.00
2023-05-16T05:21:42.148Z,100.00
2023-05-16T05:24:45.706Z,100.00
2023-05-16T05:27:49.304Z,100.00
2023-05-16T05:30:52.845Z,100.00
2023-05-16T05:33:57.761Z,100.00
2023-05-16T05:37:01.270Z,100.00
2023-05-16T05:40:05.706Z,100.00
2023-05-16T05:43:09.156Z,100.00
2023-05-16T05:46:13.105Z,100.00
2023-05-16T05:49:18.413Z,100.00
2023-05-16T05:52:22.058Z,100.00
2023-05-16T05:55:25.914Z,100.00
2023-05-16T05:58:29.638Z,100.00
2023-05-16T06:01:33.189Z,100.00
2023-05-16T06:04:38.861Z,100.00
2023-05-16T06:07:42.350Z,100.00
2023-05-16T06:10:46.486Z,100.00
2023-05-16T06:13:50.041Z,100.00
2023-05-16T06:16:53.717Z,100.00
2023-05-16T06:19:58.820Z,100.00
2023-05-16T06:23:02.542Z,100.00
2023-05-16T06:26:06.277Z,100.00
2023-05-16T06:29:09.869Z,100.00
2023-05-16T06:32:13.626Z,100.00
2023-05-16T06:35:18.941Z,100.00
2023-05-16T06:38:22.548Z,100.00
2023-05-16T06:41:26.498Z,100.00
2023-05-16T06:44:30.057Z,100.00
2023-05-16T06:47:33.691Z,100.00
2023-05-16T06:50:38.673Z,100.00
2023-05-16T06:53:42.265Z,100.00
2023-05-16T06:56:46.822Z,100.00
2023-05-16T06:59:50.370Z,100.00
2023-05-16T07:02:54.129Z,100.00
2023-05-16T07:05:59.055Z,100.00
2023-05-16T07:09:03.138Z,100.00
2023-05-16T07:12:07.694Z,100.00
2023-05-16T07:15:31.294Z,100.00
2023-05-16T07:18:35.157Z,100.00
2023-05-16T07:21:40.281Z,100.00
2023-05-16T07:24:44.019Z,100.00
2023-05-16T07:27:47.566Z,100.00
2023-05-16T07:30:51.179Z,100.00
2023-05-16T07:33:55.249Z,100.00
2023-05-16T07:37:00.225Z,100.00
2023-05-16T07:40:04.824Z,100.00
2023-05-16T07:43:08.388Z,100.00
2023-05-16T07:46:12.772Z,100.00
2023-05-16T07:49:16.453Z,100.00
2023-05-16T07:52:21.633Z,100.00
2023-05-16T07:55:25.422Z,100.00
2023-05-16T07:58:29.520Z,100.00
2023-05-16T08:01:33.252Z,100.00
2023-05-16T08:04:36.895Z,100.00
2023-05-16T08:07:41.910Z,100.00
2023-05-16T08:10:45.612Z,100.00
2023-05-16T08:13:49.401Z,100.00
2023-05-16T08:16:52.951Z,100.00
2023-05-16T08:19:56.795Z,100.00
2023-05-16T08:23:01.848Z,100.00
2023-05-16T08:26:05.827Z,100.00
2023-05-16T08:29:09.545Z,100.00
2023-05-16T08:32:13.329Z,100.00
2023-05-16T08:35:17.116Z,100.00
2023-05-16T08:38:22.559Z,100.00
2023-05-16T08:41:26.198Z,100.00
2023-05-16T08:44:30.991Z,100.00
2023-05-16T08:47:36.822Z,100.00
2023-05-16T08:50:42.834Z,100.00
2023-05-16T08:53:55.454Z,100.00
2023-05-16T08:57:01.096Z,100.00
2023-05-16T09:00:11.884Z,100.00
2023-05-16T09:03:16.042Z,100.00
2023-05-16T09:06:20.610Z,100.00
2023-05-16T09:09:25.752Z,96.69
2023-05-16T09:12:29.393Z,89.81
2023-05-16T09:15:34.698Z,95.52
2023-05-16T09:18:38.844Z,91.86
2023-05-16T09:21:43.146Z,95.93
2023-05-16T09:24:48.790Z,87.22
2023-05-16T09:27:54.965Z,83.22
2023-05-16T09:31:00.274Z,83.40
2023-05-16T09:34:04.816Z,83.65
2023-05-16T09:37:08.420Z,87.36
2023-05-16T09:40:14.495Z,96.25
2023-05-16T09:43:18.913Z,96.48
2023-05-16T09:46:27.695Z,100.00
2023-05-16T09:49:31.501Z,100.00
2023-05-16T09:52:35.290Z,100.00
2023-05-16T09:55:40.190Z,100.00
2023-05-16T09:58:46.588Z,100.00
2023-05-16T10:01:52.295Z,100.00
2023-05-16T10:04:55.856Z,100.00
2023-05-16T10:08:00.117Z,100.00
2023-05-16T10:11:07.368Z,100.00
2023-05-16T10:14:13.082Z,100.00
2023-05-16T10:17:17.557Z,100.00
2023-05-16T10:20:24.271Z,100.00
2023-05-16T10:23:30.773Z,100.00
2023-05-16T10:26:36.330Z,100.00
2023-05-16T10:29:53.510Z,100.00
2023-05-16T10:33:00.829Z,100.00
2023-05-16T10:36:05.590Z,100.00
2023-05-16T10:39:10.011Z,100.00
2023-05-16T10:42:18.386Z,100.00
2023-05-16T10:45:23.341Z,100.00
2023-05-16T10:48:35.315Z,100.00
2023-05-16T10:51:40.030Z,100.00
2023-05-16T10:54:51.051Z,100.00
2023-05-16T10:57:55.977Z,100.00
2023-05-16T11:01:22.230Z,100.00
2023-05-16T11:04:45.946Z,100.00
2023-05-16T11:08:06.595Z,100.00
2023-05-16T11:11:45.602Z,100.00
2023-05-16T11:14:53.592Z,100.00
2023-05-16T11:18:09.535Z,100.00
2023-05-16T11:21:13.253Z,100.00
2023-05-16T11:24:31.063Z,100.00
2023-05-16T11:27:37.338Z,100.00
2023-05-16T11:30:45.843Z,100.00
2023-05-16T11:33:49.684Z,100.00
2023-05-16T11:36:53.429Z,100.00
2023-05-16T11:40:01.691Z,100.00
2023-05-16T11:43:07.335Z,100.00
2023-05-16T11:46:14.941Z,100.00
2023-05-16T11:49:19.865Z,100.00
2023-05-16T11:52:23.638Z,100.00
2023-05-16T11:55:41.143Z,100.00
2023-05-16T11:58:47.406Z,100.00
2023-05-16T12:01:53.136Z,100.00
2023-05-16T12:04:57.028Z,100.00
2023-05-16T12:08:01.003Z,100.00
2023-05-16T12:11:04.878Z,100.00
2023-05-16T12:14:09.812Z,100.00
2023-05-16T12:17:15.491Z,100.00
2023-05-16T12:20:19.973Z,100.00
2023-05-16T12:23:23.626Z,100.00
2023-05-16T12:26:30.831Z,100.00
2023-05-16T12:29:34.715Z,100.00
2023-05-16T12:32:40.488Z,100.00
2023-05-16T12:35:47.493Z,100.00
2023-05-16T12:38:52.258Z,100.00
2023-05-16T12:41:55.782Z,100.00
2023-05-16T12:44:59.326Z,100.00
2023-05-16T12:48:14.012Z,100.00
2023-05-16T12:51:20.181Z,100.00
2023-05-16T12:54:23.906Z,100.00
2023-05-16T12:57:27.797Z,100.00
2023-05-16T13:00:32.136Z,100.00
2023-05-16T13:03:38.144Z,100.00
2023-05-16T13:06:57.264Z,100.00
2023-05-16T13:10:02.563Z,100.00
2023-05-16T13:13:06.300Z,100.00
2023-05-16T13:16:10.392Z,100.00
2023-05-16T13:19:15.486Z,100.00
2023-05-16T13:22:19.178Z,100.00
2023-05-16T13:25:23.023Z,100.00
2023-05-16T13:28:26.925Z,100.00
2023-05-16T13:31:30.513Z,100.00
2023-05-16T13:34:35.543Z,100.00
2023-05-16T13:37:39.747Z,100.00
2023-05-16T13:40:43.296Z,100.00
2023-05-16T13:43:46.865Z,100.00
2023-05-16T13:46:50.939Z,100.00
2023-05-16T13:49:56.057Z,100.00
2023-05-16T13:52:59.738Z,100.00
2023-05-16T13:56:03.339Z,100.00
2023-05-16T13:59:07.646Z,100.00
2023-05-16T14:02:14.978Z,100.00
2023-05-16T14:05:20.439Z,100.00
2023-05-16T14:08:23.951Z,100.00
2023-05-16T14:11:29.278Z,100.00
2023-05-16T14:14:33.144Z,100.00
2023-05-16T14:17:36.997Z,100.00
2023-05-16T14:20:42.079Z,100.00
2023-05-16T14:23:45.686Z,100.00
2023-05-16T14:26:49.420Z,100.00
2023-05-16T14:29:52.932Z,100.00
2023-05-16T14:32:56.554Z,100.00
2023-05-16T14:36:01.563Z,100.00
2023-05-16T14:39:05.411Z,100.00
2023-05-16T14:42:09.194Z,100.00
2023-05-16T14:45:13.821Z,100.00
2023-05-16T14:48:17.983Z,100.00
2023-05-16T14:51:22.956Z,100.00
2023-05-16T14:54:26.629Z,100.00
2023-05-16T14:57:30.226Z,100.00
2023-05-16T15:00:33.849Z,100.00
2023-05-16T15:03:53.819Z,100.00
2023-05-16T15:07:00.685Z,100.00
2023-05-16T15:10:04.300Z,100.00
2023-05-16T15:13:07.881Z,100.00
2023-05-16T15:16:11.782Z,100.00
2023-05-16T15:19:15.453Z,100.00
2023-05-16T15:22:20.585Z,100.00
2023-05-16T15:25:24.159Z,100.00
2023-05-16T15:28:27.907Z,100.00
2023-05-16T15:31:32.255Z,100.00
2023-05-16T15:34:37.040Z,100.00
2023-05-16T15:37:42.004Z,100.00
2023-05-16T15:40:45.688Z,100.00
2023-05-16T15:43:49.646Z,100.00
2023-05-16T15:46:53.317Z,100.00
2023-05-16T15:49:56.917Z,100.00
2023-05-16T15:53:01.984Z,100.00
2023-05-16T15:56:06.217Z,100.00
2023-05-16T15:59:09.860Z,100.00
2023-05-16T16:02:13.559Z,100.00
2023-05-16T16:05:17.594Z,100.00
2023-05-16T16:08:22.575Z,100.00
2023-05-16T16:11:28.035Z,100.00
2023-05-16T16:14:31.529Z,100.00
2023-05-16T16:17:35.389Z,100.00
2023-05-16T16:20:38.972Z,100.00
2023-05-16T16:23:43.867Z,100.00
2023-05-16T16:26:47.545Z,100.00
2023-05-16T16:29:51.196Z,100.00
2023-05-16T16:32:55.034Z,100.00
2023-05-16T16:35:59.421Z,100.00
2023-05-16T16:39:05.807Z,100.00
2023-05-16T16:42:09.765Z,100.00
2023-05-16T16:45:13.556Z,100.00
2023-05-16T16:48:17.175Z,100.00
2023-05-16T16:51:21.056Z,100.00
2023-05-16T16:54:26.158Z,100.00
2023-05-16T16:57:29.805Z,100.00
2023-05-16T17:00:33.619Z,100.00
2023-05-16T17:03:37.192Z,100.00
2023-05-16T17:06:41.097Z,100.00
2023-05-16T17:09:46.443Z,100.00
2023-05-16T17:12:50.108Z,100.00
2023-05-16T17:15:53.770Z,100.00
2023-05-16T17:18:57.630Z,100.00
2023-05-16T17:22:01.321Z,100.00
2023-05-16T17:25:08.069Z,100.00
2023-05-16T17:28:11.694Z,100.00
2023-05-16T17:31:15.973Z,100.00
2023-05-16T17:34:19.552Z,100.00
2023-05-16T17:37:24.307Z,100.00
2023-05-16T17:40:29.385Z,100.00
2023-05-16T17:43:33.729Z,100.00
2023-05-16T17:46:38.487Z,100.00
2023-05-16T17:49:42.075Z,100.00
2023-05-16T17:52:46.425Z,100.00
2023-05-16T17:55:51.720Z,100.00
2023-05-16T17:58:55.298Z,100.00
2023-05-16T18:01:58.946Z,100.00
2023-05-16T18:05:02.598Z,100.00
2023-05-16T18:08:08.570Z,100.00
2023-05-16T18:11:13.938Z,100.00
2023-05-16T18:14:17.525Z,100.00
2023-05-16T18:17:21.309Z,100.00
2023-05-16T18:20:24.888Z,100.00
2023-05-16T18:23:28.477Z,100.00
2023-05-16T18:26:33.489Z,100.00
2023-05-16T18:29:37.185Z,100.00
2023-05-16T18:32:41.685Z,100.00
2023-05-16T18:35:45.389Z,100.00
2023-05-16T18:38:48.995Z,100.00
2023-05-16T18:41:54.080Z,100.00
2023-05-16T18:44:57.745Z,100.00
2023-05-16T18:48:01.488Z,100.00
2023-05-16T18:51:05.739Z,100.00
2023-05-16T18:54:09.400Z,100.00
2023-05-16T18:57:14.789Z,100.00
2023-05-16T19:00:20.096Z,100.00
2023-05-16T19:03:23.769Z,100.00
2023-05-16T19:06:27.652Z,100.00
2023-05-16T19:09:32.565Z,100.00
2023-05-16T19:12:37.501Z,100.00
2023-05-16T19:15:41.344Z,100.00
2023-05-16T19:18:45.191Z,100.00
2023-05-16T19:21:49.015Z,100.00
2023-05-16T19:24:52.739Z,100.00
2023-05-16T19:27:57.749Z,100.00
2023-05-16T19:31:01.401Z,100.00
2023-05-16T19:34:05.650Z,100.00
2023-05-16T19:37:09.715Z,100.00
2023-05-16T19:40:16.323Z,100.00
2023-05-16T19:43:22.128Z,100.00
2023-05-16T19:46:25.742Z,100.00
2023-05-16T19:49:29.429Z,100.00
2023-05-16T19:52:33.125Z,100.00
2023-05-16T19:55:39.180Z,100.00
2023-05-16T19:58:44.447Z,100.00
2023-05-16T20:01:48.059Z,100.00
2023-05-16T20:04:52.050Z,100.00
2023-05-16T20:07:56.181Z,100.00
2023-05-16T20:11:00.053Z,100.00
2023-05-16T20:14:05.073Z,100.00
2023-05-16T20:17:08.729Z,100.00
2023-05-16T20:20:12.880Z,100.00
2023-05-16T20:23:16.537Z,100.00
2023-05-16T20:26:20.110Z,100.00
2023-05-16T20:29:25.545Z,100.00
2023-05-16T20:32:29.441Z,100.00
2023-05-16T20:35:33.208Z,100.00
2023-05-16T20:38:38.125Z,100.00
2023-05-16T20:41:41.656Z,100.00
2023-05-16T20:44:46.659Z,100.00
2023-05-16T20:47:51.253Z,100.00
2023-05-16T20:50:56.476Z,100.00
2023-05-16T20:54:00.138Z,100.00
2023-05-16T20:57:03.814Z,100.00
2023-05-16T21:00:10.862Z,100.00
2023-05-16T21:03:14.898Z,100.00
2023-05-16T21:06:18.461Z,100.00
2023-05-16T21:09:22.101Z,100.00
2023-05-16T21:12:25.758Z,100.00
2023-05-16T21:15:30.873Z,100.00
2023-05-16T21:18:34.551Z,100.00
2023-05-16T21:21:39.580Z,100.00
2023-05-16T21:24:43.196Z,100.00
2023-05-16T21:27:46.732Z,100.00
2023-05-16T21:30:51.707Z,100.00
2023-05-16T21:33:55.349Z,100.00
2023-05-16T21:36:59.980Z,100.00
2023-05-16T21:40:03.836Z,100.00
2023-05-16T21:43:07.423Z,100.00
2023-05-16T21:46:12.333Z,100.00
2023-05-16T21:49:15.997Z,100.00
2023-05-16T21:52:19.607Z,100.00
2023-05-16T21:55:23.160Z,100.00
2023-05-16T21:58:26.756Z,100.00
2023-05-16T22:01:31.768Z,100.00
2023-05-16T22:04:35.643Z,100.00
2023-05-16T22:07:39.234Z,100.00
2023-05-16T22:10:43.048Z,100.00
2023-05-16T22:13:46.762Z,100.00
2023-05-16T22:16:52.237Z,100.00
2023-05-16T22:19:55.841Z,100.00
2023-05-16T22:22:59.445Z,100.00
2023-05-16T22:26:03.153Z,100.00
2023-05-16T22:29:06.872Z,100.00
2023-05-16T22:32:12.301Z,100.00
2023-05-16T22:35:15.989Z,100.00
2023-05-16T22:38:19.588Z,100.00
2023-05-16T22:41:24.102Z,100.00
2023-05-16T22:44:28.073Z,100.00
2023-05-16T22:47:32.983Z,100.00
2023-05-16T22:50:36.599Z,100.00
2023-05-16T22:53:40.594Z,100.00
2023-05-16T22:56:44.301Z,100.00
2023-05-16T22:59:47.996Z,100.00
2023-05-16T23:02:53.601Z,100.00
2023-05-16T23:05:57.655Z,100.00
2023-05-16T23:09:02.434Z,100.00
2023-05-16T23:12:06.576Z,100.00
2023-05-16T23:15:11.290Z,100.00
2023-05-16T23:18:16.453Z,100.00
2023-05-16T23:21:20.032Z,100.00
2023-05-16T23:24:25.083Z,100.00
2023-05-16T23:27:28.939Z,100.00
2023-05-16T23:30:32.461Z,100.00
2023-05-16T23:33:37.387Z,100.00
2023-05-16T23:36:40.924Z,100.00
2023-05-16T23:39:44.666Z,100.00
2023-05-16T23:42:48.210Z,100.00
2023-05-16T23:45:51.897Z,100.00
2023-05-16T23:48:57.997Z,100.00
2023-05-16T23:52:01.797Z,100.00
2023-05-16T23:55:06.200Z,100.00
2023-05-16T23:58:09.812Z,100.00
